createdAt,value
2023-12-08T00:01:15.553Z,24.00
2023-12-08T00:06:17.404Z,26.73
2023-12-08T00:11:19.139Z,23.77
2023-12-08T00:16:20.852Z,25.53
2023-12-08T00:21:22.607Z,22.57
2023-12-08T00:26:24.411Z,24.23
2023-12-08T00:31:26.094Z,23.40
2023-12-08T00:36:28.077Z,24.50
2023-12-08T00:41:29.932Z,22.57
2023-12-08T00:46:32.324Z,19.20
2023-12-08T00:51:34.080Z,19.43
2023-12-08T00:56:35.788Z,18.60
2023-12-08T01:01:37.562Z,20.27
2023-12-08T01:06:39.381Z,19.73
2023-12-08T01:11:41.203Z,19.73
2023-12-08T01:16:43.310Z,20.93
2023-12-08T01:21:44.980Z,22.27
2023-12-08T01:26:47.201Z,21.50
2023-12-08T01:31:48.960Z,20.47
2023-12-08T01:36:50.729Z,20.27
2023-12-08T01:41:52.746Z,18.80
2023-12-08T01:46:54.921Z,19.93
2023-12-08T01:51:56.727Z,21.27
2023-12-08T01:56:59.435Z,20.63
2023-12-08T02:02:01.182Z,19.33
2023-12-08T02:07:03.340Z,20.67
2023-12-08T02:12:06.126Z,21.33
2023-12-08T02:17:17.284Z,17.83
2023-12-08T02:22:19.740Z,17.43
2023-12-08T02:27:21.982Z,16.97
2023-12-08T02:32:35.487Z,18.10
2023-12-08T02:37:40.960Z,14.63
2023-12-08T02:42:42.708Z,15.43
2023-12-08T02:47:44.551Z,12.27
2023-12-08T02:52:46.350Z,12.70
2023-12-08T02:57:48.044Z,13.20
2023-12-08T03:02:49.769Z,15.20
2023-12-08T03:07:51.635Z,14.20
2023-12-08T03:12:53.387Z,13.53
2023-12-08T03:17:55.199Z,14.67
2023-12-08T03:22:57.346Z,13.10
2023-12-08T03:27:59.127Z,15.67
2023-12-08T03:33:01.173Z,15.77
2023-12-08T03:38:02.928Z,14.60
2023-12-08T03:43:04.612Z,14.80
2023-12-08T03:48:06.567Z,15.10
2023-12-08T03:53:08.360Z,14.50
2023-12-08T03:58:10.045Z,16.37
2023-12-08T04:03:11.768Z,15.47
2023-12-08T04:08:13.629Z,15.30
2023-12-08T04:13:15.496Z,16.17
2023-12-08T04:18:17.433Z,12.63
2023-12-08T04:23:19.237Z,11.10
2023-12-08T04:28:21.139Z,12.27
2023-12-08T04:33:23.081Z,16.63
2023-12-08T04:38:24.941Z,9.37
2023-12-08T04:43:26.728Z,18.37
2023-12-08T04:48:29.104Z,14.47
2023-12-08T04:53:30.931Z,13.73
2023-12-08T04:58:32.663Z,12.03
2023-12-08T05:03:34.390Z,11.90
2023-12-08T05:08:37.195Z,7.93
2023-12-08T05:13:39.042Z,10.40
2023-12-08T05:18:41.023Z,8.00
2023-12-08T05:23:42.865Z,8.30
2023-12-08T05:28:44.578Z,8.47
2023-12-08T05:33:46.890Z,6.20
2023-12-08T05:38:48.787Z,7.83
2023-12-08T05:43:50.616Z,8.27
2023-12-08T05:48:52.450Z,7.23
2023-12-08T05:53:54.310Z,4.80
2023-12-08T05:58:56.120Z,5.63
2023-12-08T06:03:57.868Z,4.87
2023-12-08T06:09:00.006Z,6.03
2023-12-08T06:14:02.275Z,5.97
2023-12-08T06:19:05.911Z,6.60
2023-12-08T06:24:07.855Z,5.87
2023-12-08T06:29:09.802Z,6.10
2023-12-08T06:34:16.616Z,4.50
2023-12-08T06:39:19.564Z,6.50
2023-12-08T06:44:21.342Z,8.23
2023-12-08T06:49:23.223Z,6.30
2023-12-08T06:54:24.970Z,6.07
2023-12-08T06:59:26.809Z,10.33
2023-12-08T07:04:28.798Z,6.50
2023-12-08T07:09:30.899Z,7.20
2023-12-08T07:14:33.506Z,14.27
2023-12-08T07:19:35.528Z,7.37
2023-12-08T07:24:40.407Z,3.97
2023-12-08T07:29:42.126Z,4.67
2023-12-08T07:34:43.906Z,8.17
2023-12-08T07:39:46.734Z,21.40
2023-12-08T07:44:48.474Z,23.03
2023-12-08T07:49:50.818Z,22.47
2023-12-08T07:54:52.845Z,23.70
2023-12-08T07:59:55.097Z,27.10
2023-12-08T08:04:56.879Z,26.17
2023-12-08T08:09:58.674Z,32.07
2023-12-08T08:15:00.881Z,28.73
2023-12-08T08:20:02.781Z,23.73
2023-12-08T08:25:05.346Z,15.20
2023-12-08T08:30:07.661Z,10.60
2023-12-08T08:35:09.644Z,14.33
2023-12-08T08:40:11.961Z,10.90
2023-12-08T08:45:13.801Z,8.87
2023-12-08T08:50:15.765Z,24.53
2023-12-08T08:55:17.897Z,15.63
2023-12-08T09:00:19.939Z,11.13
2023-12-08T09:05:22.177Z,10.90
2023-12-08T09:10:24.183Z,8.50
2023-12-08T09:15:26.882Z,6.50
2023-12-08T09:20:28.724Z,14.20
2023-12-08T09:25:30.663Z,9.00
2023-12-08T09:30:32.852Z,7.67
2023-12-08T09:35:34.710Z,4.03
2023-12-08T09:40:38.675Z,4.03
2023-12-08T09:45:42.821Z,8.17
2023-12-08T09:50:45.002Z,4.27
2023-12-08T09:55:48.557Z,5.43
2023-12-08T10:00:50.814Z,6.53
2023-12-08T10:05:55.006Z,7.23
2023-12-08T10:10:56.720Z,6.00
2023-12-08T10:15:59.804Z,6.93
2023-12-08T10:21:20.789Z,5.07
2023-12-08T10:26:25.113Z,3.47
2023-12-08T10:31:27.970Z,7.40
2023-12-08T10:36:29.791Z,3.13
2023-12-08T10:41:31.623Z,7.00
2023-12-08T10:46:33.662Z,6.63
2023-12-08T10:51:36.417Z,11.73
2023-12-08T10:56:38.654Z,5.73
2023-12-08T11:01:42.326Z,4.47
2023-12-08T11:06:54.784Z,4.40
2023-12-08T11:11:59.733Z,7.43
2023-12-08T11:17:07.568Z,4.90
2023-12-08T11:22:10.756Z,6.93
2023-12-08T11:27:19.637Z,5.93
2023-12-08T11:32:36.399Z,7.83
2023-12-08T11:37:40.355Z,7.80
2023-12-08T11:42:47.069Z,7.30
2023-12-08T11:47:49.011Z,8.30
2023-12-08T11:52:51.885Z,10.00
2023-12-08T11:58:02.757Z,8.60
2023-12-08T12:03:09.830Z,10.67
2023-12-08T12:08:15.238Z,9.27
2023-12-08T12:13:20.231Z,13.57
2023-12-08T12:18:24.497Z,9.07
2023-12-08T12:23:26.410Z,9.40
2023-12-08T12:28:28.131Z,9.57
2023-12-08T12:33:30.192Z,9.30
2023-12-08T12:38:31.949Z,7.87
2023-12-08T12:43:33.686Z,11.20
2023-12-08T12:48:35.522Z,8.67
2023-12-08T12:53:47.310Z,6.40
2023-12-08T12:59:09.860Z,8.27
2023-12-08T13:04:11.654Z,9.00
2023-12-08T13:09:27.678Z,7.43
2023-12-08T13:14:29.426Z,9.73
2023-12-08T13:19:31.354Z,8.67
2023-12-08T13:24:33.234Z,8.27
2023-12-08T13:29:34.931Z,10.27
2023-12-08T13:34:37.024Z,12.93
2023-12-08T13:39:38.975Z,7.17
2023-12-08T13:44:40.791Z,8.10
2023-12-08T13:49:48.433Z,6.23
2023-12-08T13:54:50.284Z,7.63
2023-12-08T13:59:53.803Z,10.40
2023-12-08T14:04:55.836Z,6.30
2023-12-08T14:09:57.574Z,7.93
2023-12-08T14:14:59.348Z,8.93
2023-12-08T14:20:01.241Z,7.77
2023-12-08T14:25:03.533Z,19.60
2023-12-08T14:30:06.112Z,17.83
2023-12-08T14:35:15.187Z,8.43
2023-12-08T14:40:25.048Z,9.53
2023-12-08T14:45:26.843Z,10.40
2023-12-08T14:50:30.411Z,9.27
2023-12-08T14:55:32.194Z,7.77
2023-12-08T15:00:34.955Z,8.53
2023-12-08T15:05:40.087Z,7.43
2023-12-08T15:10:41.928Z,8.50
2023-12-08T15:15:48.955Z,8.03
2023-12-08T15:20:53.497Z,9.63
2023-12-08T15:25:55.292Z,9.43
2023-12-08T15:30:57.034Z,8.97
2023-12-08T15:35:59.490Z,9.40
2023-12-08T15:41:03.343Z,9.50
2023-12-08T15:46:08.997Z,9.27
2023-12-08T15:51:14.423Z,16.73
2023-12-08T15:56:16.233Z,13.10
2023-12-08T16:01:19.433Z,15.13
2023-12-08T16:06:21.357Z,13.80
2023-12-08T16:11:30.297Z,11.03
2023-12-08T16:16:32.563Z,17.07
2023-12-08T16:21:35.728Z,11.47
2023-12-08T16:26:37.811Z,15.77
2023-12-08T16:31:40.387Z,10.67
2023-12-08T16:36:42.182Z,24.80
2023-12-08T16:41:48.529Z,17.10
2023-12-08T16:46:50.348Z,17.87
2023-12-08T16:51:52.142Z,14.87
2023-12-08T16:56:54.769Z,13.77
2023-12-08T17:01:57.316Z,11.30
2023-12-08T17:07:00.231Z,15.07
2023-12-08T17:12:02.359Z,16.00
2023-12-08T17:17:04.533Z,18.30
2023-12-08T17:22:06.799Z,19.67
2023-12-08T17:27:08.628Z,14.93
2023-12-08T17:32:10.504Z,20.40
2023-12-08T17:37:12.300Z,18.20
2023-12-08T17:42:14.063Z,20.73
2023-12-08T17:47:15.821Z,18.67
2023-12-08T17:52:21.912Z,26.13
2023-12-08T17:57:23.768Z,17.47
2023-12-08T18:02:25.723Z,21.50
2023-12-08T18:07:27.596Z,20.97
2023-12-08T18:12:29.691Z,23.63
2023-12-08T18:17:31.715Z,19.53
2023-12-08T18:22:34.864Z,20.83
2023-12-08T18:27:48.925Z,15.60
2023-12-08T18:32:58.510Z,17.07
2023-12-08T18:38:00.289Z,17.30
2023-12-08T18:43:02.002Z,16.87
2023-12-08T18:48:04.031Z,16.60
2023-12-08T18:53:05.801Z,18.77
2023-12-08T18:58:08.933Z,24.17
2023-12-08T19:03:10.694Z,21.27
2023-12-08T19:08:12.760Z,18.27
2023-12-08T19:13:14.572Z,17.23
2023-12-08T19:18:16.450Z,18.13
2023-12-08T19:23:18.514Z,15.97
2023-12-08T19:28:20.233Z,15.50
2023-12-08T19:33:25.215Z,15.57
2023-12-08T19:38:27.163Z,14.77
2023-12-08T19:43:29.487Z,15.57
2023-12-08T19:48:31.354Z,11.83
2023-12-08T19:53:33.186Z,12.70
2023-12-08T19:58:34.895Z,16.27
2023-12-08T20:03:36.857Z,11.03
2023-12-08T20:08:38.830Z,18.10
2023-12-08T20:13:40.831Z,10.93
2023-12-08T20:18:42.919Z,13.90
2023-12-08T20:23:44.790Z,12.87
2023-12-08T20:28:46.640Z,12.17
2023-12-08T20:33:49.436Z,15.30
2023-12-08T20:38:51.329Z,15.27
2023-12-08T20:43:53.159Z,15.30
2023-12-08T20:48:55.420Z,15.33
2023-12-08T20:53:57.327Z,15.37
2023-12-08T20:58:59.356Z,19.33
2023-12-08T21:04:01.110Z,18.17
2023-12-08T21:09:03.146Z,17.00
2023-12-08T21:14:06.996Z,18.73
2023-12-08T21:19:09.062Z,19.30
2023-12-08T21:24:10.818Z,18.30
2023-12-08T21:29:12.698Z,15.93
2023-12-08T21:34:15.985Z,19.03
2023-12-08T21:39:17.806Z,19.33
2023-12-08T21:44:23.910Z,14.63
2023-12-08T21:49:33.501Z,10.97
2023-12-08T21:54:35.475Z,9.83
2023-12-08T21:59:37.403Z,13.93
2023-12-08T22:04:39.267Z,11.13
2023-12-08T22:09:41.323Z,12.20
2023-12-08T22:14:43.357Z,15.27
2023-12-08T22:19:45.375Z,20.83
2023-12-08T22:24:47.187Z,16.83
2023-12-08T22:29:49.049Z,20.33
2023-12-08T22:34:52.443Z,14.80
2023-12-08T22:39:54.205Z,15.50
2023-12-08T22:44:56.028Z,11.93
2023-12-08T22:50:00.773Z,14.10
2023-12-08T22:55:04.640Z,14.37
2023-12-08T23:00:09.032Z,10.97
2023-12-08T23:05:10.836Z,14.83
2023-12-08T23:10:12.846Z,12.27
2023-12-08T23:15:14.768Z,10.97
2023-12-08T23:20:16.672Z,16.23
2023-12-08T23:25:18.399Z,12.97
2023-12-08T23:30:20.292Z,13.53
2023-12-08T23:35:22.191Z,11.87
2023-12-08T23:40:23.910Z,11.03
2023-12-08T23:45:25.645Z,9.80
2023-12-08T23:50:27.389Z,12.20
2023-12-08T23:55:29.110Z,12.23
